createdAt,value
2023-01-04T00:01:22.897Z,100.00
2023-01-04T00:03:50.465Z,100.00
2023-01-04T00:06:19.149Z,100.00
2023-01-04T00:08:46.833Z,100.00
2023-01-04T00:11:20.643Z,100.00
2023-01-04T00:13:51.260Z,100.00
2023-01-04T00:16:21.401Z,100.00
2023-01-04T00:18:49.886Z,100.00
2023-01-04T00:21:20.599Z,100.00
2023-01-04T00:23:50.276Z,100.00
2023-01-04T00:26:20.246Z,100.00
2023-01-04T00:28:53.948Z,100.00
2023-01-04T00:31:23.353Z,100.00
2023-01-04T00:33:56.206Z,100.00
2023-01-04T00:36:24.716Z,100.00
2023-01-04T00:39:08.024Z,100.00
2023-01-04T00:42:00.085Z,100.00
2023-01-04T00:44:29.109Z,100.00
2023-01-04T00:46:57.049Z,100.00
2023-01-04T00:49:25.167Z,100.00
2023-01-04T00:51:52.835Z,100.00
2023-01-04T00:54:21.364Z,100.00
2023-01-04T00:56:48.952Z,100.00
2023-01-04T00:59:18.928Z,100.00
2023-01-04T01:01:47.100Z,100.00
2023-01-04T01:04:17.413Z,100.00
2023-01-04T01:06:45.045Z,100.00
2023-01-04T01:09:13.052Z,100.00
2023-01-04T01:11:41.128Z,100.00
2023-01-04T01:14:12.528Z,100.00
2023-01-04T01:16:57.742Z,100.00
2023-01-04T01:19:28.007Z,100.00
2023-01-04T01:21:58.089Z,100.00
2023-01-04T01:24:26.640Z,100.00
2023-01-04T01:26:54.963Z,100.00
2023-01-04T01:29:22.630Z,100.00
2023-01-04T01:31:50.218Z,100.00
2023-01-04T01:34:17.743Z,100.00
2023-01-04T01:36:45.249Z,100.00
2023-01-04T01:39:12.850Z,100.00
2023-01-04T01:41:40.246Z,100.00
2023-01-04T01:44:42.803Z,100.00
2023-01-04T01:47:14.938Z,100.00
2023-01-04T01:49:44.637Z,100.00
2023-01-04T01:52:17.568Z,100.00
2023-01-04T01:54:51.726Z,100.00
2023-01-04T01:57:24.411Z,100.00
2023-01-04T01:59:56.282Z,100.00
2023-01-04T02:02:24.037Z,100.00
2023-01-04T02:04:55.625Z,100.00
2023-01-04T02:07:26.626Z,100.00
2023-01-04T02:09:55.814Z,100.00
2023-01-04T02:12:23.345Z,100.00
2023-01-04T02:14:51.569Z,100.00
2023-01-04T02:17:30.902Z,100.00
2023-01-04T02:20:25.746Z,100.00
2023-01-04T02:23:29.776Z,100.00
2023-01-04T02:26:29.212Z,100.00
2023-01-04T02:29:24.618Z,100.00
2023-01-04T02:31:57.377Z,100.00
2023-01-04T02:34:58.297Z,100.00
2023-01-04T02:37:50.284Z,100.00
2023-01-04T02:40:28.329Z,100.00
2023-01-04T02:43:32.839Z,100.00
2023-01-04T02:46:08.505Z,100.00
2023-01-04T02:48:59.132Z,100.00
2023-01-04T02:51:35.662Z,100.00
2023-01-04T02:54:15.443Z,100.00
2023-01-04T02:57:05.858Z,100.00
2023-01-04T03:00:08.247Z,100.00
2023-01-04T03:03:06.342Z,100.00
2023-01-04T03:06:14.056Z,100.00
2023-01-04T03:08:50.406Z,100.00
2023-01-04T03:11:37.389Z,100.00
2023-01-04T03:14:30.960Z,100.00
2023-01-04T03:17:04.739Z,100.00
2023-01-04T03:19:53.833Z,100.00
2023-01-04T03:22:55.967Z,100.00
2023-01-04T03:25:48.966Z,100.00
2023-01-04T03:28:37.775Z,100.00
2023-01-04T03:31:33.525Z,100.00
2023-01-04T03:34:19.852Z,100.00
2023-01-04T03:37:08.703Z,100.00
2023-01-04T03:40:00.685Z,100.00
2023-01-04T03:43:04.672Z,100.00
2023-01-04T03:46:03.027Z,100.00
2023-01-04T03:49:00.866Z,100.00
2023-01-04T03:51:36.650Z,100.00
2023-01-04T03:54:09.806Z,100.00
2023-01-04T03:56:41.927Z,100.00
2023-01-04T03:59:10.341Z,100.00
2023-01-04T04:01:39.175Z,100.00
2023-01-04T04:04:25.179Z,100.00
2023-01-04T04:07:11.121Z,100.00
2023-01-04T04:09:38.473Z,100.00
2023-01-04T04:12:06.024Z,100.00
2023-01-04T04:14:33.483Z,100.00
2023-01-04T04:17:01.147Z,100.00
2023-01-04T04:19:28.761Z,100.00
2023-01-04T04:21:56.337Z,100.00
2023-01-04T04:24:42.192Z,100.00
2023-01-04T04:27:09.801Z,100.00
2023-01-04T04:29:37.173Z,100.00
2023-01-04T04:32:04.785Z,100.00
2023-01-04T04:34:32.320Z,100.00
2023-01-04T04:36:59.618Z,100.00
2023-01-04T04:39:27.011Z,100.00
2023-01-04T04:41:54.411Z,100.00
2023-01-04T04:44:21.802Z,100.00
2023-01-04T04:46:49.994Z,100.00
2023-01-04T04:49:18.455Z,100.00
2023-01-04T04:51:46.841Z,100.00
2023-01-04T04:54:20.553Z,100.00
2023-01-04T04:56:49.372Z,100.00
2023-01-04T04:59:17.114Z,100.00
2023-01-04T05:01:44.734Z,100.00
2023-01-04T05:04:17.059Z,100.00
2023-01-04T05:06:45.183Z,100.00
2023-01-04T05:09:13.965Z,100.00
2023-01-04T05:12:00.630Z,100.00
2023-01-04T05:14:27.966Z,100.00
2023-01-04T05:16:55.478Z,100.00
2023-01-04T05:19:22.949Z,100.00
2023-01-04T05:21:50.417Z,100.00
2023-01-04T05:24:17.882Z,100.00
2023-01-04T05:26:45.253Z,100.00
2023-01-04T05:29:32.672Z,100.00
2023-01-04T05:32:00.247Z,100.00
2023-01-04T05:34:27.734Z,100.00
2023-01-04T05:36:55.193Z,100.00
2023-01-04T05:39:22.568Z,100.00
2023-01-04T05:42:08.565Z,100.00
2023-01-04T05:44:36.018Z,100.00
2023-01-04T05:47:03.445Z,100.00
2023-01-04T05:49:30.850Z,100.00
2023-01-04T05:51:58.216Z,100.00
2023-01-04T05:54:25.624Z,100.00
2023-01-04T05:56:53.001Z,100.00
2023-01-04T05:59:20.411Z,100.00
2023-01-04T06:01:47.989Z,100.00
2023-01-04T06:04:15.637Z,100.00
2023-01-04T06:06:43.250Z,100.00
2023-01-04T06:09:10.657Z,100.00
2023-01-04T06:11:38.090Z,100.00
2023-01-04T06:14:05.627Z,100.00
2023-01-04T06:16:33.285Z,100.00
2023-01-04T06:19:01.397Z,100.00
2023-01-04T06:21:28.890Z,100.00
2023-01-04T06:23:56.475Z,100.00
2023-01-04T06:26:23.960Z,100.00
2023-01-04T06:28:51.406Z,100.00
2023-01-04T06:31:18.932Z,100.00
2023-01-04T06:33:46.403Z,100.00
2023-01-04T06:36:19.209Z,100.00
2023-01-04T06:38:48.287Z,100.00
2023-01-04T06:41:15.944Z,100.00
2023-01-04T06:43:43.360Z,100.00
2023-01-04T06:46:11.065Z,100.00
2023-01-04T06:48:38.564Z,100.00
2023-01-04T06:51:06.112Z,100.00
2023-01-04T06:53:33.582Z,100.00
2023-01-04T06:56:01.135Z,100.00
2023-01-04T06:58:29.114Z,100.00
2023-01-04T07:00:56.599Z,100.00
2023-01-04T07:03:24.164Z,100.00
2023-01-04T07:05:52.192Z,100.00
2023-01-04T07:08:20.116Z,100.00
2023-01-04T07:10:47.611Z,100.00
2023-01-04T07:13:15.418Z,100.00
2023-01-04T07:15:43.388Z,100.00
2023-01-04T07:18:11.211Z,100.00
2023-01-04T07:20:38.980Z,100.00
2023-01-04T07:23:07.826Z,100.00
2023-01-04T07:25:35.743Z,100.00
2023-01-04T07:28:03.321Z,100.00
2023-01-04T07:30:30.921Z,100.00
2023-01-04T07:32:58.469Z,100.00
2023-01-04T07:35:26.599Z,100.00
2023-01-04T07:37:58.292Z,100.00
2023-01-04T07:40:27.911Z,100.00
2023-01-04T07:42:57.562Z,100.00
2023-01-04T07:45:25.708Z,100.00
2023-01-04T07:47:53.125Z,100.00
2023-01-04T07:50:20.513Z,100.00
2023-01-04T07:52:48.058Z,100.00
2023-01-04T07:55:15.550Z,100.00
2023-01-04T07:57:42.954Z,100.00
2023-01-04T08:00:11.563Z,100.00
2023-01-04T08:02:41.987Z,100.00
2023-01-04T08:05:09.561Z,100.00
2023-01-04T08:07:37.072Z,100.00
2023-01-04T08:10:04.991Z,100.00
2023-01-04T08:12:32.522Z,100.00
2023-01-04T08:14:59.955Z,100.00
2023-01-04T08:17:27.426Z,100.00
2023-01-04T08:19:54.814Z,100.00
2023-01-04T08:22:22.323Z,100.00
2023-01-04T08:24:49.743Z,100.00
2023-01-04T08:27:17.246Z,100.00
2023-01-04T08:29:44.785Z,100.00
2023-01-04T08:32:12.193Z,100.00
2023-01-04T08:34:39.791Z,100.00
2023-01-04T08:37:07.151Z,100.00
2023-01-04T08:39:36.198Z,100.00
2023-01-04T08:42:17.800Z,100.00
2023-01-04T08:44:48.073Z,100.00
2023-01-04T08:47:15.704Z,100.00
2023-01-04T08:49:43.199Z,100.00
2023-01-04T08:52:11.776Z,100.00
2023-01-04T08:54:39.146Z,100.00
2023-01-04T08:57:06.659Z,100.00
2023-01-04T08:59:34.115Z,100.00
2023-01-04T09:02:05.663Z,100.00
2023-01-04T09:04:33.820Z,100.00
2023-01-04T09:07:01.241Z,100.00
2023-01-04T09:09:30.257Z,100.00
2023-01-04T09:11:59.743Z,100.00
2023-01-04T09:14:27.445Z,100.00
2023-01-04T09:16:54.835Z,100.00
2023-01-04T09:19:22.770Z,100.00
2023-01-04T09:21:50.576Z,100.00
2023-01-04T09:24:18.150Z,100.00
2023-01-04T09:26:47.415Z,100.00
2023-01-04T09:29:14.793Z,100.00
2023-01-04T09:31:42.270Z,100.00
2023-01-04T09:34:14.759Z,100.00
2023-01-04T09:36:45.011Z,100.00
2023-01-04T09:39:20.822Z,100.00
2023-01-04T09:41:59.218Z,100.00
2023-01-04T09:45:12.047Z,100.00
2023-01-04T09:47:33.213Z,100.00
2023-01-04T09:50:06.904Z,100.00
2023-01-04T09:52:43.361Z,100.00
2023-01-04T09:55:38.882Z,100.00
2023-01-04T09:58:31.339Z,100.00
2023-01-04T10:01:25.305Z,100.00
2023-01-04T10:03:55.858Z,100.00
2023-01-04T10:06:23.253Z,100.00
2023-01-04T10:08:50.634Z,100.00
2023-01-04T10:11:33.374Z,100.00
2023-01-04T10:14:18.968Z,100.00
2023-01-04T10:22:53.122Z,100.00
2023-01-04T10:25:52.832Z,100.00
2023-01-04T10:28:40.571Z,100.00
2023-01-04T10:31:41.016Z,100.00
2023-01-04T10:34:26.400Z,100.00
2023-01-04T10:37:10.314Z,100.00
2023-01-04T10:39:38.022Z,100.00
2023-01-04T10:42:17.197Z,100.00
2023-01-04T10:44:51.924Z,100.00
2023-01-04T10:47:32.663Z,100.00
2023-01-04T10:50:11.509Z,100.00
2023-01-04T10:53:11.720Z,100.00
2023-01-04T10:56:24.011Z,100.00
2023-01-04T10:58:53.323Z,100.00
2023-01-04T11:01:33.450Z,98.81
2023-01-04T11:04:23.944Z,98.03
2023-01-04T11:07:02.795Z,98.60
2023-01-04T11:09:52.516Z,98.43
2023-01-04T11:12:22.721Z,98.67
2023-01-04T11:14:51.259Z,98.08
2023-01-04T11:17:21.434Z,97.99
2023-01-04T11:19:49.377Z,97.47
2023-01-04T11:22:41.046Z,96.89
2023-01-04T11:28:20.093Z,96.40
2023-01-04T11:31:09.277Z,95.71
2023-01-04T11:34:03.539Z,95.69
2023-01-04T11:36:31.738Z,95.90
2023-01-04T11:39:00.076Z,94.81
2023-01-04T11:41:28.775Z,94.01
2023-01-04T11:43:59.160Z,92.31
2023-01-04T11:46:27.734Z,92.41
2023-01-04T11:48:55.791Z,92.28
2023-01-04T11:51:29.098Z,92.33
2023-01-04T11:54:01.877Z,91.77
2023-01-04T11:56:31.003Z,92.44
2023-01-04T11:59:22.929Z,88.09
2023-01-04T12:02:35.184Z,85.43
2023-01-04T12:05:22.797Z,82.83
2023-01-04T12:07:56.281Z,83.35
2023-01-04T12:10:27.306Z,82.42
2023-01-04T12:12:57.915Z,83.40
2023-01-04T12:16:19.735Z,83.33
2023-01-04T12:18:47.785Z,83.08
2023-01-04T12:21:22.166Z,83.27
2023-01-04T12:23:50.406Z,82.16
2023-01-04T12:26:18.330Z,82.33
2023-01-04T12:29:09.085Z,82.15
2023-01-04T12:31:36.520Z,82.96
2023-01-04T12:34:16.815Z,82.86
2023-01-04T12:36:50.244Z,83.67
2023-01-04T12:39:17.497Z,83.19
2023-01-04T12:42:00.674Z,83.11
2023-01-04T12:44:37.403Z,84.60
2023-01-04T12:47:36.550Z,85.21
2023-01-04T12:50:08.714Z,85.30
2023-01-04T12:55:31.033Z,87.25
2023-01-04T12:58:03.872Z,87.62
2023-01-04T13:00:50.206Z,87.60
2023-01-04T13:03:18.479Z,88.13
2023-01-04T13:05:57.290Z,89.12
2023-01-04T13:08:25.621Z,89.35
2023-01-04T13:10:57.024Z,88.57
2023-01-04T13:13:45.620Z,88.71
2023-01-04T13:16:36.936Z,89.45
2023-01-04T13:19:12.354Z,88.75
2023-01-04T13:21:42.669Z,89.27
2023-01-04T13:24:23.995Z,89.30
2023-01-04T13:26:53.062Z,89.53
2023-01-04T13:29:28.202Z,89.76
2023-01-04T13:32:03.985Z,89.79
2023-01-04T13:34:36.105Z,90.57
2023-01-04T13:37:13.617Z,90.51
2023-01-04T13:39:45.063Z,91.87
2023-01-04T13:42:25.799Z,90.39
2023-01-04T13:48:10.071Z,90.91
2023-01-04T13:50:49.689Z,90.25
2023-01-04T13:53:25.860Z,90.57
2023-01-04T13:55:58.028Z,90.12
2023-01-04T13:58:28.185Z,91.06
2023-01-04T14:00:58.689Z,90.75
2023-01-04T14:03:59.812Z,90.78
2023-01-04T14:09:43.349Z,91.75
2023-01-04T14:12:18.938Z,91.82
2023-01-04T14:15:26.004Z,93.01
2023-01-04T14:17:55.767Z,93.42
2023-01-04T14:20:23.410Z,93.22
2023-01-04T14:22:54.312Z,93.79
2023-01-04T14:25:31.079Z,93.81
2023-01-04T14:28:24.889Z,93.63
2023-01-04T14:31:00.568Z,93.98
2023-01-04T14:33:32.813Z,95.04
2023-01-04T14:36:09.549Z,95.87
2023-01-04T14:38:47.548Z,96.05
2023-01-04T14:41:18.088Z,96.07
2023-01-04T14:43:48.533Z,97.43
2023-01-04T14:46:16.555Z,97.80
2023-01-04T14:48:44.093Z,97.50
2023-01-04T14:51:16.585Z,98.61
2023-01-04T14:53:44.442Z,99.12
2023-01-04T14:56:14.038Z,98.02
2023-01-04T14:58:43.522Z,98.02
2023-01-04T15:01:12.976Z,99.14
2023-01-04T15:03:40.897Z,98.07
2023-01-04T15:06:08.703Z,98.81
2023-01-04T15:08:36.331Z,98.58
2023-01-04T15:11:04.313Z,99.47
2023-01-04T15:13:38.765Z,100.00
2023-01-04T15:16:18.144Z,98.98
2023-01-04T15:18:46.798Z,99.35
2023-01-04T15:21:14.484Z,98.95
2023-01-04T15:23:41.890Z,100.00
2023-01-04T15:26:11.720Z,99.18
2023-01-04T15:28:39.463Z,99.32
2023-01-04T15:31:09.251Z,99.07
2023-01-04T15:33:39.949Z,99.46
2023-01-04T15:36:21.705Z,98.89
2023-01-04T15:38:55.281Z,99.44
2023-01-04T15:41:57.869Z,99.92
2023-01-04T15:44:25.154Z,100.00
2023-01-04T15:46:53.041Z,100.00
2023-01-04T15:49:20.581Z,100.00
2023-01-04T15:51:48.140Z,100.00
2023-01-04T15:54:19.215Z,100.00
2023-01-04T15:56:46.704Z,100.00
2023-01-04T15:59:14.273Z,100.00
2023-01-04T16:01:48.364Z,100.00
2023-01-04T16:04:16.264Z,100.00
2023-01-04T16:06:43.804Z,100.00
2023-01-04T16:09:11.394Z,100.00
2023-01-04T16:11:58.964Z,100.00
2023-01-04T16:14:26.482Z,100.00
2023-01-04T16:16:54.812Z,100.00
2023-01-04T16:19:22.317Z,100.00
2023-01-04T16:21:49.705Z,100.00
2023-01-04T16:24:44.863Z,100.00
2023-01-04T16:27:04.628Z,100.00
2023-01-04T16:29:32.021Z,100.00
2023-01-04T16:31:59.563Z,100.00
2023-01-04T16:34:27.553Z,100.00
2023-01-04T16:36:54.954Z,100.00
2023-01-04T16:39:28.340Z,100.00
2023-01-04T16:42:11.126Z,100.00
2023-01-04T16:44:39.305Z,100.00
2023-01-04T16:47:07.130Z,100.00
2023-01-04T16:49:34.605Z,100.00
2023-01-04T16:52:02.078Z,100.00
2023-01-04T16:54:29.564Z,100.00
2023-01-04T16:56:59.005Z,100.00
2023-01-04T16:59:26.466Z,100.00
2023-01-04T17:01:58.194Z,100.00
2023-01-04T17:04:26.094Z,100.00
2023-01-04T17:06:55.050Z,100.00
2023-01-04T17:09:22.549Z,100.00
2023-01-04T17:15:00.733Z,100.00
2023-01-04T17:17:35.726Z,100.00
2023-01-04T17:20:04.697Z,100.00
2023-01-04T17:22:34.425Z,100.00
2023-01-04T17:25:05.318Z,100.00
2023-01-04T17:27:34.727Z,100.00
2023-01-04T17:30:02.594Z,100.00
2023-01-04T17:32:30.191Z,100.00
2023-01-04T17:34:58.863Z,100.00
2023-01-04T17:37:27.265Z,100.00
2023-01-04T17:39:54.845Z,100.00
2023-01-04T17:42:23.169Z,100.00
2023-01-04T17:44:51.435Z,100.00
2023-01-04T17:47:19.529Z,100.00
2023-01-04T17:49:47.203Z,100.00
2023-01-04T17:52:20.978Z,100.00
2023-01-04T17:54:51.079Z,100.00
2023-01-04T17:57:18.833Z,100.00
2023-01-04T17:59:46.499Z,100.00
2023-01-04T18:02:14.122Z,100.00
2023-01-04T18:04:42.659Z,100.00
2023-01-04T18:09:40.476Z,100.00
2023-01-04T18:12:07.901Z,100.00
2023-01-04T18:14:35.454Z,100.00
2023-01-04T18:17:02.983Z,100.00
2023-01-04T18:19:31.009Z,100.00
2023-01-04T18:21:58.897Z,100.00
2023-01-04T18:24:42.134Z,100.00
2023-01-04T18:27:23.737Z,100.00
2023-01-04T18:29:53.647Z,100.00
2023-01-04T18:32:22.840Z,100.00
2023-01-04T18:34:50.315Z,100.00
2023-01-04T18:37:18.822Z,100.00
2023-01-04T18:39:48.111Z,100.00
2023-01-04T18:42:15.857Z,100.00
2023-01-04T18:44:48.363Z,100.00
2023-01-04T18:47:19.828Z,100.00
2023-01-04T18:49:49.115Z,100.00
2023-01-04T18:52:17.324Z,100.00
2023-01-04T18:54:45.141Z,100.00
2023-01-04T18:57:12.660Z,100.00
2023-01-04T18:59:40.990Z,100.00
2023-01-04T19:02:15.317Z,100.00
2023-01-04T19:04:42.848Z,100.00
2023-01-04T19:07:10.296Z,100.00
2023-01-04T19:09:38.031Z,100.00
2023-01-04T19:12:05.728Z,100.00
2023-01-04T19:14:33.107Z,100.00
2023-01-04T19:17:00.589Z,100.00
2023-01-04T19:19:27.997Z,100.00
2023-01-04T19:21:55.412Z,100.00
2023-01-04T19:24:22.959Z,100.00
2023-01-04T19:26:50.469Z,100.00
2023-01-04T19:29:18.557Z,100.00
2023-01-04T19:31:45.966Z,100.00
2023-01-04T19:34:13.771Z,100.00
2023-01-04T19:36:41.243Z,100.00
2023-01-04T19:39:09.497Z,100.00
2023-01-04T19:41:38.226Z,100.00
2023-01-04T19:44:08.697Z,100.00
2023-01-04T19:46:40.592Z,100.00
2023-01-04T19:49:15.244Z,100.00
2023-01-04T19:51:45.482Z,100.00
2023-01-04T19:54:19.869Z,100.00
2023-01-04T19:56:51.096Z,100.00
2023-01-04T19:59:19.869Z,100.00
2023-01-04T20:01:48.866Z,100.00
2023-01-04T20:04:16.710Z,100.00
2023-01-04T20:06:45.556Z,100.00
2023-01-04T20:09:14.677Z,100.00
2023-01-04T20:11:46.421Z,100.00
2023-01-04T20:14:15.188Z,100.00
2023-01-04T20:16:46.881Z,100.00
2023-01-04T20:19:17.547Z,100.00
2023-01-04T20:21:46.948Z,100.00
2023-01-04T20:24:14.910Z,100.00
2023-01-04T20:26:43.852Z,100.00
2023-01-04T20:29:15.678Z,100.00
2023-01-04T20:31:45.747Z,100.00
2023-01-04T20:34:18.209Z,100.00
2023-01-04T20:36:48.375Z,100.00
2023-01-04T20:39:15.864Z,100.00
2023-01-04T20:42:03.216Z,100.00
2023-01-04T20:44:30.689Z,100.00
2023-01-04T20:46:59.465Z,100.00
2023-01-04T20:49:28.709Z,100.00
2023-01-04T20:51:56.343Z,100.00
2023-01-04T20:54:25.795Z,100.00
2023-01-04T20:56:54.665Z,100.00
2023-01-04T20:59:22.417Z,100.00
2023-01-04T21:01:49.967Z,100.00
2023-01-04T21:04:24.933Z,100.00
2023-01-04T21:06:52.559Z,100.00
2023-01-04T21:09:19.958Z,100.00
2023-01-04T21:11:47.640Z,100.00
2023-01-04T21:14:15.155Z,100.00
2023-01-04T21:16:48.923Z,100.00
2023-01-04T21:19:26.582Z,100.00
2023-01-04T21:21:54.338Z,100.00
2023-01-04T21:24:24.803Z,100.00
2023-01-04T21:26:52.634Z,100.00
2023-01-04T21:29:22.393Z,100.00
2023-01-04T21:31:52.121Z,100.00
2023-01-04T21:34:23.047Z,100.00
2023-01-04T21:36:53.185Z,100.00
2023-01-04T21:39:20.650Z,100.00
2023-01-04T21:41:51.217Z,100.00
2023-01-04T21:44:21.448Z,100.00
2023-01-04T21:46:51.322Z,100.00
2023-01-04T21:49:20.825Z,100.00
2023-01-04T21:51:48.380Z,100.00
2023-01-04T21:54:20.851Z,100.00
2023-01-04T21:56:50.943Z,100.00
2023-01-04T21:59:18.394Z,100.00
2023-01-04T22:01:53.181Z,100.00
2023-01-04T22:04:22.889Z,100.00
2023-01-04T22:06:52.603Z,100.00
2023-01-04T22:09:19.969Z,100.00
2023-01-04T22:11:49.589Z,100.00
2023-01-04T22:14:18.158Z,100.00
2023-01-04T22:16:45.662Z,100.00
2023-01-04T22:19:15.622Z,100.00
2023-01-04T22:21:43.427Z,100.00
2023-01-04T22:24:14.306Z,100.00
2023-01-04T22:26:42.820Z,100.00
2023-01-04T22:29:10.868Z,100.00
2023-01-04T22:31:38.369Z,100.00
2023-01-04T22:34:09.551Z,100.00
2023-01-04T22:36:37.148Z,100.00
2023-01-04T22:39:04.706Z,100.00
2023-01-04T22:41:32.061Z,100.00
2023-01-04T22:44:03.280Z,100.00
2023-01-04T22:46:32.530Z,99.11
2023-01-04T22:49:01.331Z,99.35
2023-01-04T22:51:29.860Z,98.72
2023-01-04T22:54:01.375Z,98.95
2023-01-04T22:56:28.965Z,98.04
2023-01-04T22:58:57.738Z,97.56
2023-01-04T23:01:28.486Z,98.08
2023-01-04T23:03:57.951Z,98.18
2023-01-04T23:06:26.832Z,98.95
2023-01-04T23:08:56.268Z,99.21
2023-01-04T23:11:23.992Z,99.23
2023-01-04T23:13:52.140Z,100.00
2023-01-04T23:16:20.062Z,100.00
2023-01-04T23:18:47.551Z,100.00
2023-01-04T23:21:15.785Z,100.00
2023-01-04T23:23:47.748Z,100.00
2023-01-04T23:26:18.725Z,100.00
2023-01-04T23:28:47.023Z,100.00
2023-01-04T23:31:17.099Z,100.00
2023-01-04T23:33:44.567Z,100.00
2023-01-04T23:36:17.709Z,100.00
2023-01-04T23:38:50.364Z,100.00
2023-01-04T23:41:18.372Z,100.00
2023-01-04T23:43:45.735Z,100.00
2023-01-04T23:46:15.987Z,100.00
2023-01-04T23:48:44.423Z,100.00
2023-01-04T23:51:14.150Z,100.00
2023-01-04T23:53:41.593Z,100.00
2023-01-04T23:56:15.137Z,100.00
2023-01-04T23:58:42.900Z,100.00
